Time;durP1;ratioP1;P1;durP2;ratioP2;P2;SDS_P1;SDS_P2;PMS_P1;PMS_P2;Temp;Humidity;BMP_temperature;BMP_pressure;BME280_temperature;BME280_humidity;BME280_pressure;Samples;Min_cycle;Max_cycle;Signal;HPM_P1;HPM_P2
2021/03/15 00:02:45;;;;;;;40.40;19.73;;;;;;;1.59;69.84;99548.09;2298242;77;29791;-63
2021/03/15 00:05:55;;;;;;;37.73;20.15;;;;;;;1.51;70.00;99541.69;2297474;77;32036;-61
2021/03/15 00:09:03;;;;;;;53.35;25.30;;;;;;;1.46;70.10;99551.48;2299045;77;33976;-58
2021/03/15 00:12:13;;;;;;;40.80;21.12;;;;;;;1.42;70.35;99550.28;2299136;77;30112;-59
2021/03/15 00:15:26;;;;;;;35.23;17.70;;;;;;;1.40;70.39;99558.69;2298930;77;27864;-59
2021/03/15 00:18:33;;;;;;;36.50;19.57;;;;;;;1.39;70.57;99559.59;2299103;77;29722;-59
2021/03/15 00:21:42;;;;;;;36.17;21.77;;;;;;;1.35;70.83;99560.13;2298923;77;32053;-59
2021/03/15 00:24:48;;;;;;;36.20;19.95;;;;;;;1.34;71.04;99560.55;2298719;77;33954;-60
2021/03/15 00:27:53;;;;;;;40.55;20.80;;;;;;;1.38;70.98;99565.77;2298990;77;29165;-59
2021/03/15 00:30:59;;;;;;;30.75;18.95;;;;;;;1.40;70.94;99557.36;2298965;77;27876;-59
2021/03/15 00:34:07;;;;;;;;;;;;;;;1.43;70.91;99563.89;2301784;77;28820;-59
2021/03/15 00:37:19;;;;;;;34.18;20.15;;;;;;;1.43;70.88;99551.55;2298838;77;31131;-59
2021/03/15 00:40:25;;;;;;;37.63;18.87;;;;;;;1.40;70.74;99551.65;2299039;77;33978;-60
2021/03/15 00:43:32;;;;;;;38.33;19.17;;;;;;;1.37;70.68;99557.00;2299003;77;30037;-59
2021/03/15 00:46:40;;;;;;;32.67;18.92;;;;;;;1.32;71.05;99557.55;2298774;77;27914;-59
2021/03/15 00:49:50;;;;;;;29.57;17.57;;;;;;;1.26;71.53;99562.52;2299007;77;29227;-59
2021/03/15 00:53:04;;;;;;;40.20;20.97;;;;;;;1.21;71.78;99561.75;2298451;77;31718;-62
2021/03/15 00:56:14;;;;;;;36.60;19.85;;;;;;;1.19;71.71;99561.80;2300019;77;33961;-60
2021/03/15 00:59:24;;;;;;;36.83;21.90;;;;;;;1.23;71.67;99560.42;2298275;77;30046;-60
2021/03/15 01:02:38;;;;;;;30.95;18.45;;;;;;;1.26;71.71;99554.61;2298363;77;27890;-59
2021/03/15 01:05:52;;;;;;;37.28;19.52;;;;;;;1.30;71.70;99554.08;2298376;77;27861;-58
2021/03/15 01:09:08;;;;;;;29.40;19.17;;;;;;;1.31;71.58;99554.49;2298237;77;32033;-61
2021/03/15 01:12:18;;;;;;;34.33;18.20;;;;;;;1.30;71.63;99554.96;2298080;77;33965;-59
2021/03/15 01:15:31;;;;;;;36.48;18.67;;;;;;;1.30;71.59;99554.96;2298557;77;30067;-59
2021/03/15 01:18:37;;;;;;;32.88;17.65;;;;;;;1.26;71.52;99554.61;2298730;77;27920;-59
2021/03/15 01:21:42;;;;;;;33.15;17.92;;;;;;;1.21;71.56;99552.09;2298532;77;29708;-60
2021/03/15 01:24:47;;;;;;;;;;;;;;;1.18;71.43;99553.91;2301493;77;32026;-59
2021/03/15 01:27:52;;;;;;;33.80;16.87;;;;;;;1.15;71.44;99559.28;2298364;77;33053;-60
2021/03/15 01:30:58;;;;;;;;;;;;;;;1.14;71.38;99562.81;2301260;77;29147;-60
2021/03/15 01:34:02;;;;;;;;;;;;;;;1.11;71.42;99551.86;2301302;77;27833;-59
2021/03/15 01:37:11;;;;;;;56.55;22.35;;;;;;;1.03;71.32;99557.31;2298254;77;28808;-60
2021/03/15 01:40:20;;;;;;;78.97;26.33;;;;;;;0.99;71.55;99556.11;2298436;77;32036;-60
2021/03/15 01:43:27;;;;;;;81.12;28.42;;;;;;;0.97;71.59;99549.99;2268235;77;33975;-60
2021/03/15 01:46:32;;;;;;;55.17;23.07;;;;;;;0.97;71.64;99546.92;2298793;77;29157;-60
2021/03/15 01:49:41;;;;;;;68.57;24.87;;;;;;;0.94;71.62;99539.08;2298694;77;27889;-61
2021/03/15 01:52:54;;;;;;;63.35;25.25;;;;;;;0.86;71.43;99537.05;2298580;77;29710;-59
2021/03/15 01:56:05;;;;;;;80.97;28.45;;;;;;;0.81;71.43;99537.62;2298489;77;32027;-61
2021/03/15 01:59:16;;;;;;;76.07;27.22;;;;;;;0.80;71.42;99538.52;2298426;77;33967;-60
2021/03/15 02:02:21;;;;;;;78.97;28.38;;;;;;;0.78;71.47;99539.00;2268384;77;30031;-63
2021/03/15 02:05:27;;;;;;;69.70;27.02;;;;;;;0.74;71.46;99540.38;2298520;77;27908;-63
2021/03/15 02:08:34;;;;;;;65.37;26.80;;;;;;;0.73;71.33;99540.42;2298146;77;29695;-62
2021/03/15 02:12:16;;;;;;;70.65;27.67;;;;;;;0.71;71.24;99535.16;2298345;77;32032;-60
2021/03/15 02:15:39;;;;;;;64.53;27.48;;;;;;;0.70;71.51;99537.84;2298115;77;33191;-60
2021/03/15 02:19:14;;;;;;;63.58;24.60;;;;;;;0.66;71.24;99530.89;2298684;77;30052;-60
2021/03/15 02:22:48;;;;;;;52.33;22.40;;;;;;;0.61;71.20;99531.00;2298866;77;27944;-60
2021/03/15 02:26:44;;;;;;;68.50;23.12;;;;;;;0.55;71.16;99526.73;2298536;77;29363;-59
2021/03/15 02:30:12;;;;;;;56.15;21.77;;;;;;;0.53;71.21;99521.06;2298413;77;31119;-60
2021/03/15 02:33:41;;;;;;;55.57;20.17;;;;;;;0.55;71.16;99518.83;2338906;76;28040;-62
2021/03/15 02:36:54;;;;;;;32.53;14.65;;;;;;;0.51;71.25;99524.17;2299344;77;36714;-61
2021/03/15 02:40:09;;;;;;;52.30;19.92;;;;;;;0.40;71.22;99510.78;2299183;77;29711;-60
2021/03/15 02:43:24;;;;;;;40.80;17.62;;;;;;;0.48;71.21;99527.75;2299375;77;31124;-61
2021/03/15 02:46:31;;;;;;;41.75;17.45;;;;;;;0.48;71.27;99524.26;2299357;77;33963;-61
2021/03/15 02:49:36;;;;;;;42.10;16.90;;;;;;;0.43;71.38;99522.58;2299387;77;29417;-61
2021/03/15 02:52:48;;;;;;;39.70;17.55;;;;;;;0.38;71.29;99530.16;2299619;77;27906;-61
2021/03/15 02:56:07;;;;;;;;;;;;;;;;;;;;;
2021/03/15 03:03:38;;;;;;;28.73;14.03;;;;;;;0.34;71.55;99532.44;2141075;83;31393;-58
2021/03/15 03:06:45;;;;;;;33.65;15.13;;;;;;;0.32;71.51;99531.16;2141041;83;28924;-59
2021/03/15 03:09:54;;;;;;;30.35;13.72;;;;;;;0.30;71.44;99527.22;2141228;83;27868;-61
2021/03/15 03:13:01;;;;;;;30.15;14.35;;;;;;;0.27;71.45;99522.01;2112846;83;29705;-58
2021/03/15 03:16:07;;;;;;;30.23;14.83;;;;;;;0.26;71.43;99523.38;2164180;82;32021;-59
2021/03/15 03:19:18;;;;;;;34.73;14.75;;;;;;;0.22;71.39;99523.89;2164186;82;33986;-59
2021/03/15 03:22:30;;;;;;;27.52;13.05;;;;;;;0.19;71.31;99527.02;2164210;82;29667;-62
2021/03/15 03:25:43;;;;;;;27.05;13.00;;;;;;;0.15;71.44;99519.63;2164284;82;27966;-58
2021/03/15 03:29:02;;;;;;;26.30;12.53;;;;;;;0.12;71.47;99519.25;2164371;82;28475;-59
2021/03/15 03:32:14;;;;;;;24.70;13.28;;;;;;;0.08;71.46;99523.30;2164209;82;32062;-59
2021/03/15 03:35:25;;;;;;;29.48;14.28;;;;;;;0.04;71.61;99513.71;2133406;82;33974;-59
2021/03/15 03:38:35;;;;;;;31.35;13.78;;;;;;;0.01;71.80;99521.20;2164149;82;36473;-58
2021/03/15 03:41:43;;;;;;;26.37;13.08;;;;;;;-0.02;71.90;99516.02;2164081;82;27856;-61
2021/03/15 03:44:49;;;;;;;28.62;12.63;;;;;;;-0.03;71.92;99525.66;2163162;82;29694;-59
2021/03/15 03:47:54;;;;;;;27.22;12.90;;;;;;;-0.04;71.88;99525.25;2156089;82;31181;-59
2021/03/15 03:51:04;;;;;;;28.10;12.82;;;;;;;-0.05;71.93;99523.97;2163019;82;33981;-61
2021/03/15 03:54:16;;;;;;;26.62;12.45;;;;;;;-0.06;71.91;99529.67;2163225;82;29752;-59
2021/03/15 03:57:35;;;;;;;28.00;14.00;;;;;;;-0.08;71.96;99526.66;2164142;81;27975;-59
2021/03/15 04:00:48;;;;;;;24.85;13.10;;;;;;;-0.12;71.98;99528.91;2167695;82;28811;-59
2021/03/15 04:04:00;;;;;;;23.18;12.35;;;;;;;-0.17;72.09;99525.95;2167871;82;31138;-60
2021/03/15 04:07:13;;;;;;;27.15;12.90;;;;;;;-0.21;72.21;99535.22;2168025;82;33964;-60
2021/03/15 04:10:27;;;;;;;21.85;12.40;;;;;;;-0.26;72.23;99528.72;2167952;82;29701;-61
2021/03/15 04:13:35;;;;;;;21.65;11.15;;;;;;;-0.29;72.48;99533.19;2168080;82;27928;-60
2021/03/15 04:16:45;;;;;;;21.93;11.75;;;;;;;-0.33;72.55;99534.55;2167695;82;29690;-59
2021/03/15 04:20:05;;;;;;;21.70;11.53;;;;;;;-0.32;72.76;99534.08;2167814;82;32088;-60
2021/03/15 04:23:16;;;;;;;21.52;11.10;;;;;;;-0.34;72.77;99545.97;2151261;82;33967;-60
2021/03/15 04:26:26;;;;;;;26.42;11.03;;;;;;;-0.32;72.85;99545.92;2167270;82;29745;-61
2021/03/15 04:29:34;;;;;;;20.88;11.33;;;;;;;-0.32;72.61;99552.08;2167394;81;27850;-61
2021/03/15 04:32:40;;;;;;;20.23;10.95;;;;;;;-0.32;72.38;99548.56;2167825;81;29677;-60
2021/03/15 04:35:52;;;;;;;20.70;11.18;;;;;;;-0.34;72.29;99547.28;2167855;82;32144;-60
2021/03/15 04:38:59;;;;;;;22.52;11.22;;;;;;;-0.36;72.32;99549.06;2167867;82;33327;-60
2021/03/15 04:42:05;;;;;;;20.55;13.18;;;;;;;-0.38;72.23;99550.00;2167861;82;28930;-60
2021/03/15 04:45:12;;;;;;;22.13;11.78;;;;;;;-0.41;72.21;99549.58;2168378;82;27899;-61
2021/03/15 04:48:27;;;;;;;22.52;10.38;;;;;;;-0.43;72.25;99551.40;2167902;81;29662;-61
2021/03/15 04:51:35;;;;;;;23.42;11.50;;;;;;;-0.44;72.46;99557.98;2167831;82;32120;-61
2021/03/15 04:54:44;;;;;;;20.57;11.55;;;;;;;-0.46;72.34;99556.25;2167835;82;33953;-60
2021/03/15 04:57:58;;;;;;;16.45;10.20;;;;;;;-0.46;72.34;99558.02;2166782;79;29756;-59
2021/03/15 05:01:10;;;;;;;20.85;12.68;;;;;;;-0.48;72.30;99554.08;2163675;82;27905;-61
2021/03/15 05:04:18;;;;;;;18.37;11.22;;;;;;;-0.49;72.35;99557.61;2163629;82;29700;-60
2021/03/15 05:07:31;;;;;;;22.95;12.03;;;;;;;-0.49;72.48;99555.44;2163581;82;32061;-60
2021/03/15 05:10:38;;;;;;;20.55;12.30;;;;;;;-0.49;72.54;99554.13;2163497;82;33163;-60
2021/03/15 05:13:43;;;;;;;19.00;11.60;;;;;;;-0.47;72.55;99561.55;2163631;82;29752;-60
2021/03/15 05:16:51;;;;;;;21.82;11.28;;;;;;;-0.47;72.62;99564.17;2163724;82;27952;-60
2021/03/15 05:19:58;;;;;;;23.25;11.60;;;;;;;-0.44;72.81;99566.77;2163586;82;29706;-61
2021/03/15 05:23:07;;;;;;;20.62;11.75;;;;;;;-0.38;72.98;99560.53;2132490;82;32037;-61
2021/03/15 05:26:15;;;;;;;22.02;12.37;;;;;;;-0.29;73.15;99562.13;2163456;82;33981;-60
2021/03/15 05:29:24;;;;;;;26.57;12.98;;;;;;;-0.20;73.28;99558.90;2163471;82;29705;-60
2021/03/15 05:32:39;;;;;;;22.32;13.80;;;;;;;-0.09;73.46;99557.83;2163761;82;27904;-63
2021/03/15 05:35:50;;;;;;;25.68;13.90;;;;;;;0.05;73.73;99562.84;2133031;82;28771;-80
2021/03/15 05:38:59;;;;;;;27.80;14.90;;;;;;;0.19;73.88;99559.50;2163478;82;32055;-62
2021/03/15 05:42:20;;;;;;;31.85;19.98;;;;;;;0.34;73.90;99560.95;2165775;82;33976;-66
2021/03/15 05:45:52;;;;;;;33.85;17.27;;;;;;;0.48;74.10;99557.20;2165490;82;29781;-61
2021/03/15 05:49:32;;;;;;;28.73;16.70;;;;;;;0.64;74.12;99559.05;2131898;82;27894;-62
2021/03/15 05:53:12;;;;;;;28.85;17.98;;;;;;;0.81;74.28;99560.88;2162716;82;29729;-64
2021/03/15 05:56:26;;;;;;;34.13;20.50;;;;;;;1.00;74.18;99557.38;2165419;82;32028;-67
2021/03/15 06:00:06;;;;;;;44.33;24.55;;;;;;;1.19;74.35;99559.59;2164788;80;33978;-66
2021/03/15 06:03:26;;;;;;;36.08;24.20;;;;;;;1.37;74.39;99564.91;2165420;82;29738;-66
2021/03/15 06:06:39;;;;;;;37.20;24.43;;;;;;;1.58;74.45;99563.52;2165452;82;27871;-66
2021/03/15 06:09:56;;;;;;;36.38;24.35;;;;;;;1.80;74.48;99559.03;2133716;82;28614;-67
2021/03/15 06:13:11;;;;;;;37.88;24.65;;;;;;;2.02;74.55;99554.05;2165770;82;32019;-67
2021/03/15 06:16:15;;;;;;;34.80;23.00;;;;;;;2.23;74.44;99551.73;2165848;82;34103;-67
2021/03/15 06:19:18;;;;;;;31.02;21.82;;;;;;;2.44;74.34;99544.98;2165681;82;29787;-66
2021/03/15 06:22:21;;;;;;;33.58;21.40;;;;;;;2.61;74.29;99549.77;2165748;82;27619;-66
2021/03/15 06:25:24;;;;;;;31.95;19.50;;;;;;;2.80;74.25;99554.08;2165545;82;29664;-66
2021/03/15 06:28:26;;;;;;;25.92;16.02;;;;;;;2.97;74.23;99550.91;2165564;82;32114;-65
2021/03/15 06:31:32;;;;;;;22.10;15.18;;;;;;;3.10;74.04;99554.05;2165656;82;33120;-70
2021/03/15 06:34:36;;;;;;;25.27;14.53;;;;;;;3.21;74.06;99554.16;2158883;82;28827;-66
2021/03/15 06:37:39;;;;;;;30.85;18.82;;;;;;;3.31;74.03;99547.20;2165812;82;27843;-68
2021/03/15 06:40:42;;;;;;;35.05;21.20;;;;;;;3.45;74.05;99550.75;2165764;82;29716;-69
2021/03/15 06:43:44;;;;;;;30.52;20.17;;;;;;;3.60;74.04;99548.50;2165735;82;32042;-66
2021/03/15 06:46:47;;;;;;;24.15;15.95;;;;;;;3.76;73.97;99550.16;2133563;82;33841;-67
2021/03/15 06:49:50;;;;;;;19.98;14.20;;;;;;;3.93;73.93;99546.95;2165720;82;28862;-66
2021/03/15 06:53:00;;;;;;;20.72;14.03;;;;;;;4.12;73.86;99547.64;2165747;82;28021;-65
2021/03/15 06:56:14;;;;;;;40.33;21.70;;;;;;;4.27;73.77;99551.08;2164984;82;27769;-66
2021/03/15 06:59:17;;;;;;;47.20;24.05;;;;;;;4.41;73.29;99542.59;2165526;81;32128;-66
2021/03/15 07:02:26;;;;;;;47.83;24.85;;;;;;;4.50;72.72;99543.61;2165605;82;33958;-68
2021/03/15 07:05:31;;;;;;;44.90;22.95;;;;;;;4.62;72.64;99543.62;2165597;82;29728;-68
2021/03/15 07:08:35;;;;;;;38.67;21.95;;;;;;;4.71;72.54;99543.25;2166198;82;27877;-71
2021/03/15 07:11:38;;;;;;;43.98;22.95;;;;;;;4.85;72.46;99544.07;2165238;82;29731;-64
2021/03/15 07:14:41;;;;;;;41.05;21.50;;;;;;;4.97;72.26;99541.38;2110407;82;32058;-62
2021/03/15 07:17:48;;;;;;;36.53;21.55;;;;;;;5.10;72.24;99545.75;2161849;82;33970;-67
2021/03/15 07:20:58;;;;;;;36.90;19.98;;;;;;;5.20;72.10;99538.77;2133771;82;29822;-61
2021/03/15 07:24:09;;;;;;;38.42;22.22;;;;;;;5.37;72.04;99543.39;2159175;82;27945;-65
2021/03/15 07:27:30;;;;;;;30.60;19.37;;;;;;;5.50;71.99;99539.30;2129899;82;29716;-62
2021/03/15 07:30:40;;;;;;;33.55;20.15;;;;;;;5.63;71.66;99544.50;2159519;82;32044;-67
2021/03/15 07:33:43;;;;;;;37.80;22.02;;;;;;;5.78;71.71;99548.80;2163554;82;33974;-64
2021/03/15 07:37:03;;;;;;;37.88;22.32;;;;;;;5.92;71.51;99542.88;2163604;82;29829;-63
2021/03/15 07:40:10;;;;;;;57.62;29.20;;;;;;;6.07;71.49;99548.90;2160275;82;27961;-66
2021/03/15 07:43:28;;;;;;;48.28;26.57;;;;;;;6.21;71.19;99550.97;2164202;82;29742;-66
2021/03/15 07:46:30;;;;;;;42.20;23.57;;;;;;;6.34;71.02;99550.42;2164099;82;32058;-64
2021/03/15 07:49:39;;;;;;;33.42;22.50;;;;;;;6.48;70.91;99548.00;2164095;82;33932;-67
2021/03/15 07:52:42;;;;;;;39.63;21.27;;;;;;;6.61;70.70;99547.47;2165225;82;30096;-67
2021/03/15 07:55:52;;;;;;;28.98;17.40;;;;;;;6.73;70.62;99551.34;2163847;82;27959;-72
2021/03/15 07:58:59;;;;;;;26.97;16.32;;;;;;;6.81;70.10;99552.72;2132256;80;29678;-69
2021/03/15 08:02:04;;;;;;;31.23;19.37;;;;;;;6.84;69.98;99560.58;2166838;82;31968;-71
2021/03/15 08:05:15;;;;;;;35.13;22.58;;;;;;;6.89;69.86;99555.52;2166954;82;33955;-71
2021/03/15 08:08:20;;;;;;;27.67;17.45;;;;;;;6.94;69.68;99557.50;2140131;82;30048;-70
2021/03/15 08:11:26;;;;;;;29.85;17.12;;;;;;;6.99;69.61;99559.01;2167158;82;27956;-71
2021/03/15 08:14:36;;;;;;;25.10;17.65;;;;;;;7.06;69.24;99564.91;2166275;82;29711;-68
2021/03/15 08:17:48;;;;;;;27.00;17.50;;;;;;;7.19;69.19;99563.87;2113043;82;31859;-68
2021/03/15 08:21:01;;;;;;;28.55;16.75;;;;;;;7.30;68.93;99562.88;2166682;82;33980;-69
2021/03/15 08:24:21;;;;;;;25.75;16.52;;;;;;;7.41;68.68;99561.03;2165832;82;30040;-70
2021/03/15 08:27:35;;;;;;;22.65;16.23;;;;;;;7.50;68.45;99566.37;2167850;82;27875;-68
2021/03/15 08:30:44;;;;;;;24.98;16.32;;;;;;;7.62;68.35;99565.38;2169032;82;28805;-74
2021/03/15 08:33:51;;;;;;;22.22;15.68;;;;;;;7.79;68.32;99566.73;2142473;82;32002;-70
2021/03/15 08:36:56;;;;;;;30.72;17.30;;;;;;;7.98;67.81;99559.99;2167798;82;33111;-72
2021/03/15 08:40:01;;;;;;;28.65;18.30;;;;;;;8.13;67.57;99555.69;2142382;82;30072;-73
2021/03/15 08:43:25;;;;;;;21.02;13.45;;;;;;;8.31;67.53;99555.67;2169885;81;27850;-73
2021/03/15 08:46:33;;;;;;;24.60;15.60;;;;;;;8.54;67.40;99548.27;2169913;82;29795;-64
2021/03/15 08:49:41;;;;;;;26.37;15.25;;;;;;;8.77;67.01;99551.91;2170007;82;31143;-65
2021/03/15 08:52:41;;;;;;;15.13;11.97;;;;;;;8.99;66.73;99539.18;2169479;82;34015;-66
2021/03/15 08:55:49;;;;;;;22.37;15.13;;;;;;;9.24;66.30;99536.00;2170026;81;29164;-65
2021/03/15 08:58:54;;;;;;;20.80;14.58;;;;;;;9.47;65.95;99540.03;2174311;81;27872;-67
2021/03/15 09:02:06;;;;;;;18.60;12.35;;;;;;;9.68;65.39;99536.58;2192618;81;29708;-62
2021/03/15 09:05:28;;;;;;;20.52;13.80;;;;;;;9.79;64.48;99535.95;2190046;81;32124;-67
2021/03/15 09:09:00;;;;;;;22.20;14.03;;;;;;;9.81;64.56;99535.39;2192405;81;33981;-66
2021/03/15 09:12:25;;;;;;;22.65;14.85;;;;;;;9.98;64.24;99525.05;2282225;77;32085;-66
2021/03/15 09:15:45;;;;;;;19.40;14.43;;;;;;;10.02;64.11;99520.36;2255700;78;27933;-63
2021/03/15 09:19:03;;;;;;;29.72;15.75;;;;;;;10.06;63.46;99521.91;2255803;78;32814;-63
2021/03/15 09:22:38;;;;;;;22.82;16.32;;;;;;;10.04;63.34;99515.30;2255477;78;32001;-64
2021/03/15 09:25:47;;;;;;;21.48;15.63;;;;;;;9.96;62.91;99528.28;2255448;78;33975;-62
2021/03/15 09:29:00;;;;;;;23.38;16.00;;;;;;;9.95;62.82;99519.88;2255523;78;28534;-64
2021/03/15 09:32:11;;;;;;;27.02;16.48;;;;;;;9.97;62.69;99516.63;2255396;78;27933;-63
2021/03/15 09:35:43;;;;;;;22.67;16.10;;;;;;;10.01;61.97;99514.63;2255501;78;29670;-61
2021/03/15 09:38:56;;;;;;;25.92;15.50;;;;;;;10.00;62.38;99518.25;2255691;78;32019;-68
2021/03/15 09:42:11;;;;;;;27.00;17.85;;;;;;;10.19;62.58;99516.19;2254519;78;27900;-68
2021/03/15 09:45:38;;;;;;;28.15;15.98;;;;;;;10.45;62.21;99515.09;2258093;78;29747;-72
2021/03/15 09:48:40;;;;;;;23.25;15.80;;;;;;;10.53;61.83;99510.59;2257947;78;27635;-65
2021/03/15 09:51:43;;;;;;;20.05;14.75;;;;;;;10.60;61.66;99505.71;2257924;78;29697;-66
2021/03/15 09:54:50;;;;;;;22.90;15.70;;;;;;;10.78;61.53;99503.71;2257866;78;32022;-70
2021/03/15 09:58:09;;;;;;;20.00;13.88;;;;;;;10.98;60.73;99499.75;2257774;78;33982;-71
2021/03/15 10:01:15;;;;;;;27.37;17.87;;;;;;;11.06;59.73;99502.81;2258044;78;29724;-69
2021/03/15 10:04:27;;;;;;;21.35;15.50;;;;;;;11.11;60.17;99503.84;2255511;78;27912;-75
2021/03/15 10:07:33;;;;;;;23.40;16.40;;;;;;;11.17;59.70;99507.94;2255507;78;29714;-69
2021/03/15 10:10:49;;;;;;;24.07;17.55;;;;;;;11.18;59.89;99505.14;2249713;78;27906;-68
2021/03/15 10:14:03;;;;;;;30.45;21.52;;;;;;;11.08;58.64;99499.55;2243382;79;33980;-70
2021/03/15 10:17:07;;;;;;;21.50;16.02;;;;;;;11.07;59.04;99491.59;2247608;79;29742;-69
2021/03/15 10:20:24;;;;;;;15.20;11.80;;;;;;;11.19;59.25;99495.30;2247766;79;27922;-65
2021/03/15 10:23:37;;;;;;;15.08;11.60;;;;;;;11.27;58.36;99490.28;2244552;79;28802;-74
2021/03/15 10:26:45;;;;;;;15.85;11.10;;;;;;;11.23;57.72;99484.77;2242747;79;32491;-72
2021/03/15 10:30:14;;;;;;;33.18;14.18;;;;;;;11.21;57.28;99478.14;2236068;79;33974;-67
2021/03/15 10:33:27;;;;;;;73.05;19.20;;;;;;;11.22;57.34;99477.19;2243825;79;29737;-72
2021/03/15 10:36:30;;;;;;;259.98;42.62;;;;;;;11.28;57.11;99473.73;2246809;79;27957;-76
2021/03/15 10:39:32;;;;;;;203.02;37.50;;;;;;;11.28;56.91;99469.21;2246716;79;28914;-77
2021/03/15 10:42:39;;;;;;;19.57;13.35;;;;;;;11.27;57.08;99466.64;2246511;79;31080;-75
2021/03/15 10:45:42;;;;;;;17.17;11.00;;;;;;;11.22;55.91;99472.31;2246638;79;33966;-77
2021/03/15 10:48:48;;;;;;;19.12;11.88;;;;;;;11.07;56.40;99470.15;2246588;79;29809;-69
2021/03/15 10:51:53;;;;;;;31.17;19.92;;;;;;;11.00;56.39;99463.48;2246935;79;27939;-72
2021/03/15 10:54:55;;;;;;;27.48;15.25;;;;;;;10.97;56.52;99461.84;2247281;79;29847;-70
2021/03/15 10:58:10;;;;;;;17.32;11.25;;;;;;;10.94;56.38;99461.58;2239020;79;32060;-75
2021/03/15 11:01:24;;;;;;;;;;;;;;;10.86;55.66;99457.17;2243480;79;34099;-72
2021/03/15 11:04:40;;;;;;;16.52;12.10;;;;;;;10.80;56.15;99461.61;2240640;78;28859;-63
2021/03/15 11:07:46;;;;;;;16.37;11.40;;;;;;;10.81;56.05;99454.41;2242111;79;28063;-63
2021/03/15 11:10:59;;;;;;;16.35;12.05;;;;;;;10.82;56.02;99448.98;2245060;79;29691;-63
2021/03/15 11:14:12;;;;;;;19.77;12.33;;;;;;;10.82;55.74;99444.08;2241536;79;31133;-62
2021/03/15 11:17:28;;;;;;;21.52;13.80;;;;;;;10.87;56.18;99431.25;2241763;79;33501;-65
2021/03/15 11:20:46;;;;;;;18.52;13.25;;;;;;;10.88;56.03;99427.13;2242427;79;28983;-67
2021/03/15 11:23:53;;;;;;;19.20;12.10;;;;;;;10.91;56.05;99434.97;2242853;79;28058;-62
2021/03/15 11:27:04;;;;;;;15.35;11.25;;;;;;;10.85;55.82;99435.36;2243475;79;29710;-62
2021/03/15 11:30:12;;;;;;;18.17;13.08;;;;;;;10.75;55.54;99431.10;2243602;79;31862;-62
2021/03/15 11:33:23;;;;;;;21.97;11.78;;;;;;;10.67;55.64;99430.72;2235656;79;33994;-62
2021/03/15 11:36:35;;;;;;;17.75;10.93;;;;;;;10.60;55.46;99434.73;2211682;79;29822;-63
2021/03/15 11:39:48;;;;;;;12.75;9.60;;;;;;;10.61;55.65;99421.72;2244517;79;27912;-62
2021/03/15 11:42:56;;;;;;;15.03;10.00;;;;;;;10.69;55.57;99423.45;2247010;79;29695;-63
2021/03/15 11:46:01;;;;;;;18.73;11.48;;;;;;;10.78;54.85;99418.82;2210839;79;32059;-63
2021/03/15 11:49:04;;;;;;;14.28;10.78;;;;;;;10.78;55.12;99409.94;2246947;79;33994;-69
2021/03/15 11:52:06;;;;;;;19.02;10.70;;;;;;;10.80;55.12;99408.02;2246332;79;29725;-70
2021/03/15 11:55:11;;;;;;;17.02;9.58;;;;;;;10.87;54.86;99407.14;2246326;79;27925;-73
2021/03/15 11:58:13;;;;;;;22.85;16.87;;;;;;;10.92;54.51;99401.86;2246423;79;31232;-74
2021/03/15 12:01:16;;;;;;;20.37;12.05;;;;;;;10.96;54.49;99399.83;2210817;79;32085;-72
2021/03/15 12:04:19;;;;;;;11.35;8.15;;;;;;;10.97;54.11;99392.66;2241369;79;33124;-71
2021/03/15 12:07:21;;;;;;;13.30;8.55;;;;;;;10.90;53.12;99391.72;2246777;79;29728;-65
2021/03/15 12:10:24;;;;;;;24.18;11.22;;;;;;;10.87;53.61;99390.56;2246130;78;27956;-69
2021/03/15 12:13:29;;;;;;;30.70;12.93;;;;;;;10.89;53.83;99385.97;2235135;79;29713;-61
2021/03/15 12:16:34;;;;;;;20.65;8.48;;;;;;;10.90;53.39;99385.51;2234850;79;31974;-63
2021/03/15 12:19:46;;;;;;;12.05;6.60;;;;;;;10.94;53.24;99382.52;2235026;79;33139;-61
2021/03/15 12:22:59;;;;;;;12.90;6.92;;;;;;;11.01;53.21;99384.77;2235212;79;28854;-62
2021/03/15 12:26:11;;;;;;;139.18;18.73;;;;;;;11.02;53.01;99379.33;2235171;79;27942;-62
2021/03/15 12:29:16;;;;;;;15.85;7.70;;;;;;;11.06;52.84;99375.95;2235045;79;29699;-63
2021/03/15 12:32:26;;;;;;;12.70;7.50;;;;;;;11.08;52.68;99377.59;2235070;79;32002;-62
2021/03/15 12:35:39;;;;;;;11.43;7.40;;;;;;;11.05;52.53;99375.58;2235153;79;33994;-61
2021/03/15 12:38:49;;;;;;;13.22;7.58;;;;;;;11.02;52.40;99369.07;2236190;79;29724;-62
2021/03/15 12:42:02;;;;;;;13.30;7.30;;;;;;;11.04;52.51;99369.37;2235268;79;27935;-62
2021/03/15 12:45:16;;;;;;;15.95;8.13;;;;;;;11.15;52.35;99363.30;2234982;79;27906;-63
2021/03/15 12:48:22;;;;;;;15.80;7.92;;;;;;;11.25;52.28;99358.17;2235272;79;32024;-62
2021/03/15 12:51:31;;;;;;;12.68;8.35;;;;;;;11.34;51.51;99349.95;2235007;79;33977;-62
2021/03/15 12:54:38;;;;;;;11.35;7.45;;;;;;;11.42;51.66;99342.76;2235237;79;28852;-63
2021/03/15 12:57:48;;;;;;;14.63;8.78;;;;;;;11.45;51.58;99346.08;2236500;79;27884;-68
2021/03/15 13:00:57;;;;;;;11.05;7.72;;;;;;;11.44;50.90;99343.48;2235290;79;29717;-63
2021/03/15 13:04:09;;;;;;;12.28;7.90;;;;;;;11.44;50.56;99338.12;2235296;79;31966;-63
2021/03/15 13:07:17;;;;;;;18.48;8.53;;;;;;;11.46;50.57;99345.12;2235126;79;33955;-62
2021/03/15 13:10:23;;;;;;;16.95;9.38;;;;;;;11.55;50.30;99338.26;2235365;79;29721;-61
2021/03/15 13:13:34;;;;;;;13.35;9.05;;;;;;;11.62;49.53;99337.34;2243351;79;28178;-68
2021/03/15 13:16:38;;;;;;;10.40;8.70;;;;;;;11.62;49.41;99342.22;2244335;79;29060;-62
2021/03/15 13:19:43;;;;;;;11.38;8.28;;;;;;;11.60;49.29;99341.95;2244381;79;32029;-63
2021/03/15 13:22:55;;;;;;;13.03;8.03;;;;;;;11.62;50.01;99338.19;2244245;79;33976;-63
2021/03/15 13:26:08;;;;;;;12.30;9.73;;;;;;;11.57;50.13;99326.94;2244274;79;29571;-62
2021/03/15 13:29:20;;;;;;;13.40;9.88;;;;;;;11.71;49.94;99339.38;2244193;79;27887;-62
2021/03/15 13:32:27;;;;;;;16.45;9.13;;;;;;;11.72;49.82;99344.27;2244318;79;28790;-62
2021/03/15 13:35:36;;;;;;;14.75;10.58;;;;;;;11.67;49.98;99344.10;2244261;79;32033;-62
2021/03/15 13:38:46;;;;;;;20.80;10.45;;;;;;;11.65;50.03;99342.00;2244131;79;34076;-63
2021/03/15 13:42:01;;;;;;;13.08;8.33;;;;;;;11.66;49.83;99343.73;2244160;79;28931;-62
2021/03/15 13:45:10;;;;;;;11.83;8.98;;;;;;;11.69;49.55;99348.01;2244280;79;27950;-63
2021/03/15 13:48:19;;;;;;;15.72;9.45;;;;;;;11.73;49.58;99350.02;2243960;79;29774;-62
2021/03/15 13:51:22;;;;;;;11.53;8.30;;;;;;;11.66;48.72;99342.38;2246607;79;32064;-68
2021/03/15 13:54:37;;;;;;;39.80;25.17;;;;;;;11.55;48.91;99344.47;2244021;79;28918;-61
2021/03/15 13:57:53;;;;;;;21.20;12.68;;;;;;;11.45;49.26;99354.13;2244477;79;29756;-62
2021/03/15 14:01:03;;;;;;;224.27;108.20;;;;;;;11.18;48.57;99363.56;2244606;78;27960;-62
2021/03/15 14:04:12;;;;;;;183.87;89.72;;;;;;;10.88;50.00;99360.14;2244440;79;29701;-62
2021/03/15 14:07:22;;;;;;;165.43;71.05;;;;;;;10.62;51.14;99384.15;2244481;79;31122;-62
2021/03/15 14:10:32;;;;;;;122.15;51.88;;;;;;;10.34;51.99;99383.19;2244484;79;33965;-62
2021/03/15 14:13:47;;;;;;;30.17;16.73;;;;;;;10.08;52.64;99388.00;2235849;78;29753;-62
2021/03/15 14:16:52;;;;;;;21.75;13.75;;;;;;;9.82;53.54;99381.13;2235325;79;27828;-61
2021/03/15 14:20:01;;;;;;;18.23;11.73;;;;;;;9.53;54.42;99382.39;2235337;79;29736;-64
2021/03/15 14:23:11;;;;;;;16.23;12.15;;;;;;;9.21;54.69;99382.05;2235258;79;32014;-61
2021/03/15 14:26:20;;;;;;;16.82;12.45;;;;;;;9.09;55.81;99382.77;2235205;79;34064;-62
2021/03/15 14:29:32;;;;;;;17.48;12.95;;;;;;;9.08;56.64;99383.23;2235564;79;30041;-62
2021/03/15 14:32:46;;;;;;;26.15;18.30;;;;;;;9.04;56.87;99379.00;2235376;79;27915;-62
2021/03/15 14:36:03;;;;;;;23.45;17.42;;;;;;;8.94;56.98;99380.50;2235143;79;29238;-62
2021/03/15 14:39:16;;;;;;;20.85;15.58;;;;;;;8.83;57.19;99385.61;2235134;79;32099;-62
2021/03/15 14:42:26;;;;;;;18.60;13.53;;;;;;;8.76;57.90;99379.27;2235262;79;33990;-62
2021/03/15 14:45:39;;;;;;;15.05;11.60;;;;;;;8.74;58.22;99376.31;2235154;79;28006;-63
2021/03/15 14:48:47;;;;;;;27.75;13.90;;;;;;;8.76;58.34;99381.09;2234649;79;27924;-61
2021/03/15 14:51:58;;;;;;;26.12;14.58;;;;;;;8.78;58.59;99374.70;2234614;79;29714;-61